ePrivacy and GPDR Cookie Consent by Cookie Consent
EmailTwitter


Observations de surface / Royaume-Uni / EGLL (03772)

Régions: Québec | Canada | États-Unis | Europe | France | UK | Ailleurs
Station
Affichage
Infos & localisation pour EGLL (03772) | Aide pour décoder les METARs

Observations prises le 2022-08-14 à 12H50 UTC à LONDON/HEATHROW, UK (EGLL)

Température: 32.0 Celsius

Point de rosée: 8.0 Celsius

Humidité relative: 23%

Indice Humidex 32.

Vents: Nord-est à 9 km/h ou 5 noeuds.

Pression au niveau moyen de la mer: 100.60 kilopascals.

Visibilité horizontale: 6.21 milles terrestres ou 9.94 kilomètres.

Observation METAR:

EGLL 141250Z AUTO 06005KT 010V110 9999 NCD 32/08 Q1006 NOSIG=